createdAt,value
2015-11-04T00:00:33.181Z,0.4
2015-11-04T00:01:33.138Z,0.4
2015-11-04T00:02:33.062Z,0.4
2015-11-04T00:03:33.003Z,0.4
2015-11-04T00:04:32.943Z,0.5
2015-11-04T00:05:32.883Z,0.5
2015-11-04T00:06:32.839Z,0.3
2015-11-04T00:07:32.779Z,0.2
2015-11-04T00:08:32.720Z,0.3
2015-11-04T00:09:32.660Z,0.3
2015-11-04T00:10:32.600Z,0.4
2015-11-04T00:11:32.540Z,0.3
2015-11-04T00:12:32.480Z,0.3
2015-11-04T00:13:32.420Z,0.4
2015-11-04T00:14:32.361Z,0.5
2015-11-04T00:15:32.301Z,0.5
2015-11-04T00:16:32.241Z,0.5
2015-11-04T00:17:32.181Z,0.5
2015-11-04T00:18:32.136Z,0.3
2015-11-04T00:19:32.061Z,0.1
2015-11-04T00:20:32.002Z,0
2015-11-04T00:21:31.958Z,0
2015-11-04T00:22:31.898Z,-0.1
2015-11-04T00:23:31.838Z,0.1
2015-11-04T00:24:31.778Z,0.1
2015-11-04T00:25:31.719Z,0.2
2015-11-04T00:26:31.659Z,0.2
2015-11-04T00:27:31.600Z,0.3
2015-11-04T00:28:31.539Z,0.2
2015-11-04T00:29:31.480Z,0.2
2015-11-04T00:30:31.420Z,0.3
2015-11-04T00:31:31.360Z,0.1
2015-11-04T00:32:31.332Z,-0.1
2015-11-04T00:33:31.241Z,-0.1
2015-11-04T00:34:31.181Z,-0.2
2015-11-04T00:35:31.121Z,-0.3
2015-11-04T00:36:31.061Z,-0.2
2015-11-04T00:37:31.002Z,-0.1
2015-11-04T00:38:30.942Z,0
2015-11-04T00:39:30.883Z,0
2015-11-04T00:40:30.822Z,0
2015-11-04T00:41:30.762Z,0
2015-11-04T00:42:30.703Z,0
2015-11-04T00:43:30.643Z,0
2015-11-04T00:44:30.583Z,0
2015-11-04T00:45:30.524Z,0.1
2015-11-04T00:46:30.479Z,0.2
2015-11-04T00:47:30.451Z,0.3
2015-11-04T00:48:30.360Z,0.3
2015-11-04T00:49:30.300Z,0.2
2015-11-04T00:50:30.241Z,0.2
2015-11-04T00:51:30.165Z,0.1
2015-11-04T00:52:30.120Z,0
2015-11-04T00:53:30.061Z,0.1
2015-11-04T00:54:30.014Z,0
2015-11-04T00:55:29.939Z,0
2015-11-04T00:56:29.879Z,-0.1
2015-11-04T00:57:29.819Z,-0.2
2015-11-04T00:58:29.759Z,-0.3
2015-11-04T00:59:29.700Z,-0.3
2015-11-04T01:00:29.639Z,-0.3
2015-11-04T01:01:29.595Z,-0.2
2015-11-04T01:02:29.521Z,-0.1
2015-11-04T01:03:29.461Z,-0.1
2015-11-04T01:04:29.401Z,-0.2
2015-11-04T01:05:29.342Z,-0.4
2015-11-04T01:06:29.297Z,-0.4
2015-11-04T01:07:29.222Z,-0.4
2015-11-04T01:08:29.178Z,-0.3
2015-11-04T01:09:29.103Z,-0.2
2015-11-04T01:10:29.058Z,-0.1
2015-11-04T01:11:28.998Z,-0.1
2015-11-04T01:12:28.923Z,0
2015-11-04T01:13:28.878Z,0
2015-11-04T01:14:28.803Z,0
2015-11-04T01:15:28.744Z,0.1
2015-11-04T01:16:28.699Z,0.1
2015-11-04T01:17:28.640Z,0.1
2015-11-04T01:18:28.565Z,0
2015-11-04T01:19:28.505Z,0
2015-11-04T01:20:28.445Z,0
2015-11-04T01:21:28.400Z,-0.2
2015-11-04T01:22:28.342Z,-0.2
2015-11-04T01:23:28.281Z,-0.2
2015-11-04T01:24:28.222Z,-0.2
2015-11-04T01:25:28.162Z,-0.1
2015-11-04T01:26:28.102Z,-0.2
2015-11-04T01:27:28.043Z,-0.1
2015-11-04T01:28:27.983Z,-0.1
2015-11-04T01:29:27.923Z,0
2015-11-04T01:30:27.863Z,0
2015-11-04T01:31:27.803Z,0
2015-11-04T01:32:27.744Z,0
2015-11-04T01:33:27.684Z,0
2015-11-04T01:34:27.640Z,0
2015-11-04T01:35:27.564Z,0.1
2015-11-04T01:36:27.520Z,0.1
2015-11-04T01:37:27.442Z,0.1
2015-11-04T01:38:27.382Z,0.1
2015-11-04T01:39:27.322Z,0.1
2015-11-04T01:40:27.263Z,0.1
2015-11-04T01:41:27.202Z,0.1
2015-11-04T01:42:27.143Z,0.1
2015-11-04T01:43:27.083Z,0.1
2015-11-04T01:44:27.039Z,0.1
2015-11-04T01:45:26.963Z,0.1
2015-11-04T01:46:26.904Z,0.1
2015-11-04T01:47:26.860Z,0.2
2015-11-04T01:48:26.785Z,0.2
2015-11-04T01:49:26.741Z,0.2
2015-11-04T01:50:26.680Z,0.2
2015-11-04T01:51:26.605Z,0.2
2015-11-04T01:52:26.561Z,0.3
2015-11-04T01:53:26.501Z,0.3
2015-11-04T01:54:26.441Z,0.2
2015-11-04T01:55:26.382Z,0.1
2015-11-04T01:56:26.321Z,0.1
2015-11-04T01:57:26.262Z,0
2015-11-04T01:58:26.202Z,0
2015-11-04T01:59:26.143Z,0
2015-11-04T02:00:26.083Z,0
2015-11-04T02:01:26.024Z,0
2015-11-04T02:02:25.963Z,0
2015-11-04T02:03:25.904Z,0
2015-11-04T02:04:25.844Z,0
2015-11-04T02:05:25.784Z,0
2015-11-04T02:06:25.740Z,0
2015-11-04T02:07:25.665Z,0.2
2015-11-04T02:08:25.605Z,0.3
2015-11-04T02:09:25.545Z,0.2
2015-11-04T02:10:25.486Z,0.2
2015-11-04T02:11:25.426Z,0
2015-11-04T02:12:25.382Z,-0.2
2015-11-04T02:13:25.338Z,-0.4
2015-11-04T02:14:25.262Z,-0.5
2015-11-04T02:15:25.202Z,-0.5
2015-11-04T02:16:25.143Z,-0.6
2015-11-04T02:17:25.083Z,-0.6
2015-11-04T02:18:25.023Z,-0.6
2015-11-04T02:19:24.979Z,-0.6
2015-11-04T02:20:24.904Z,-0.5
2015-11-04T02:21:24.859Z,-0.5
2015-11-04T02:22:24.800Z,-0.5
2015-11-04T02:23:24.724Z,-0.4
2015-11-04T02:24:24.681Z,-0.4
2015-11-04T02:25:24.620Z,-0.2
2015-11-04T02:26:24.561Z,-0.1
2015-11-04T02:27:24.498Z,0
2015-11-04T02:28:24.439Z,0
2015-11-04T02:29:24.379Z,0.2
2015-11-04T02:30:24.319Z,0.2
2015-11-04T02:31:24.259Z,0.1
2015-11-04T02:32:24.200Z,0.2
2015-11-04T02:33:24.140Z,0.2
2015-11-04T02:34:24.080Z,0.3
2015-11-04T02:35:24.020Z,0.2
2015-11-04T02:36:23.961Z,0.3
2015-11-04T02:37:23.901Z,0.3
2015-11-04T02:38:23.841Z,0.3
2015-11-04T02:39:23.781Z,0.4
2015-11-04T02:40:23.737Z,0.4
2015-11-04T02:41:23.677Z,0.4
2015-11-04T02:42:23.602Z,0.4
2015-11-04T02:43:23.541Z,0.2
2015-11-04T02:44:23.498Z,0.2
2015-11-04T02:45:23.439Z,0.2
2015-11-04T02:46:23.378Z,0.3
2015-11-04T02:47:23.319Z,0.4
2015-11-04T02:48:23.259Z,0.4
2015-11-04T02:49:23.200Z,0.4
2015-11-04T02:50:23.139Z,0.5
2015-11-04T02:51:23.080Z,0.5
2015-11-04T02:52:23.035Z,0.4
2015-11-04T02:53:22.960Z,0.3
2015-11-04T02:54:22.900Z,0.2
2015-11-04T02:55:22.841Z,0.3
2015-11-04T02:56:22.781Z,0.4
2015-11-04T02:57:22.736Z,0.4
2015-11-04T02:58:22.656Z,0.5
2015-11-04T02:59:22.628Z,0.5
2015-11-04T03:00:22.537Z,0.6
2015-11-04T03:01:22.492Z,0.5
2015-11-04T03:02:22.433Z,0.4
2015-11-04T03:03:22.372Z,0.3
2015-11-04T03:04:22.314Z,0.3
2015-11-04T03:05:22.253Z,0.3
2015-11-04T03:06:22.194Z,0.4
2015-11-04T03:07:22.133Z,0.4
2015-11-04T03:08:22.074Z,0.5
2015-11-04T03:09:22.014Z,0.4
2015-11-04T03:10:21.955Z,0.3
2015-11-04T03:11:21.894Z,0.3
2015-11-04T03:12:21.835Z,0.3
2015-11-04T03:13:21.775Z,0.2
2015-11-04T03:14:21.716Z,0.3
2015-11-04T03:15:21.655Z,0.4
2015-11-04T03:16:21.612Z,0.5
2015-11-04T03:17:21.536Z,0.6
2015-11-04T03:18:21.492Z,0.6
2015-11-04T03:19:21.432Z,0.5
2015-11-04T03:20:21.388Z,0.5
2015-11-04T03:21:21.313Z,0.5
2015-11-04T03:22:21.254Z,0.5
2015-11-04T03:23:21.193Z,0.6
2015-11-04T03:24:21.131Z,0.6
2015-11-04T03:25:21.071Z,0.6
2015-11-04T03:26:21.011Z,0.6
2015-11-04T03:27:20.951Z,0.6
2015-11-04T03:28:20.893Z,0.7
2015-11-04T03:29:20.832Z,0.6
2015-11-04T03:30:20.772Z,0.5
2015-11-04T03:31:20.712Z,0.4
2015-11-04T03:32:20.653Z,0.5
2015-11-04T03:33:20.609Z,0.5
2015-11-04T03:34:20.548Z,0.5
2015-11-04T03:35:20.489Z,0.6
2015-11-04T03:36:20.429Z,0.6
2015-11-04T03:37:20.370Z,0.6
2015-11-04T03:38:20.310Z,0.7
2015-11-04T03:39:20.250Z,0.7
2015-11-04T03:40:20.190Z,0.8
2015-11-04T03:41:20.131Z,0.8
2015-11-04T03:42:20.071Z,0.9
2015-11-04T03:43:20.011Z,0.9
2015-11-04T03:44:19.967Z,1
2015-11-04T03:45:19.906Z,1
2015-11-04T03:46:19.878Z,1
2015-11-04T03:47:19.788Z,1.1
2015-11-04T03:48:19.728Z,0.9
2015-11-04T03:49:19.668Z,0.9
2015-11-04T03:50:19.608Z,0.7
2015-11-04T03:51:19.549Z,0.8
2015-11-04T03:52:19.489Z,0.7
2015-11-04T03:53:19.445Z,0.8
2015-11-04T03:54:19.384Z,0.8
2015-11-04T03:55:19.325Z,0.8
2015-11-04T03:56:19.265Z,0.9
2015-11-04T03:57:19.222Z,1
2015-11-04T03:58:19.146Z,1
2015-11-04T03:59:19.087Z,1
2015-11-04T04:00:19.026Z,0.9
2015-11-04T04:01:18.967Z,1
2015-11-04T04:02:18.907Z,1
2015-11-04T04:03:18.863Z,1
2015-11-04T04:04:18.803Z,1
2015-11-04T04:05:18.744Z,1
2015-11-04T04:06:18.683Z,1
2015-11-04T04:07:18.624Z,1.1
2015-11-04T04:08:18.564Z,1.1
2015-11-04T04:09:18.519Z,1
2015-11-04T04:10:18.444Z,0.9
2015-11-04T04:11:18.385Z,0.8
2015-11-04T04:12:18.341Z,0.8
2015-11-04T04:13:18.281Z,0.9
2015-11-04T04:14:18.219Z,1
2015-11-04T04:15:18.158Z,1.1
2015-11-04T04:16:18.099Z,1.1
2015-11-04T04:17:18.039Z,1.2
2015-11-04T04:18:17.980Z,1.1
2015-11-04T04:19:18.638Z,1
2015-11-04T04:20:18.124Z,0.9
2015-11-04T04:21:17.846Z,0.9
2015-11-04T04:22:17.755Z,0.9
2015-11-04T04:23:19.493Z,0.9
2015-11-04T04:24:17.651Z,1
2015-11-04T04:25:17.654Z,1.1
2015-11-04T04:26:18.204Z,1.1
2015-11-04T04:27:17.676Z,1.1
2015-11-04T04:28:18.272Z,1.1
2015-11-04T04:29:17.853Z,1.1
2015-11-04T04:30:17.434Z,1.2
2015-11-04T04:31:17.249Z,1.2
2015-11-04T04:33:17.754Z,1
2015-11-04T04:34:17.085Z,1
2015-11-04T04:35:17.025Z,1.1
2015-11-04T04:36:16.965Z,1.1
2015-11-04T04:37:16.906Z,1.2
2015-11-04T04:38:16.846Z,1.3
2015-11-04T04:39:16.787Z,1.3
2015-11-04T04:40:16.977Z,1.3
2015-11-04T04:41:17.089Z,1.3
2015-11-04T04:42:16.623Z,1.2
2015-11-04T04:43:17.985Z,1.1
2015-11-04T04:44:16.503Z,1.1
2015-11-04T04:45:16.443Z,1.3
2015-11-04T04:46:17.211Z,1.3
2015-11-04T04:48:16.279Z,1.2
2015-11-04T04:49:16.236Z,1.2
2015-11-04T04:51:16.100Z,0.9
2015-11-04T04:52:16.040Z,0.9
2015-11-04T04:54:15.937Z,1.1
2015-11-04T04:55:15.878Z,1.2
2015-11-04T04:56:16.036Z,1.3
2015-11-04T04:57:15.773Z,1.3
2015-11-04T04:58:15.714Z,1.4
2015-11-04T04:59:15.654Z,1.4
2015-11-04T05:00:15.594Z,1.4
2015-11-04T05:01:15.534Z,1.3
2015-11-04T05:02:15.475Z,1.2
2015-11-04T05:03:15.414Z,1.2
2015-11-04T05:04:15.355Z,1.1
2015-11-04T05:05:15.311Z,1.1
2015-11-04T05:06:15.250Z,1
2015-11-04T05:07:15.191Z,1
2015-11-04T05:08:15.131Z,1.1
2015-11-04T05:09:15.072Z,1.2
2015-11-04T05:10:15.012Z,1.1
2015-11-04T05:11:14.952Z,1.1
2015-11-04T05:12:14.891Z,1.1
2015-11-04T05:13:14.833Z,1.2
2015-11-04T05:14:14.788Z,1.3
2015-11-04T05:15:14.728Z,1.4
2015-11-04T05:16:14.669Z,1.3
2015-11-04T05:17:14.622Z,1.2
2015-11-04T05:18:14.546Z,1.1
2015-11-04T05:19:14.486Z,1.1
2015-11-04T05:20:14.443Z,1
2015-11-04T05:21:14.366Z,1
2015-11-04T05:22:14.323Z,1
2015-11-04T05:23:14.263Z,1
2015-11-04T05:24:14.204Z,1.1
2015-11-04T05:25:14.160Z,1.2
2015-11-04T05:26:14.084Z,1.3
2015-11-04T05:27:14.024Z,1.3
2015-11-04T05:28:13.964Z,1.4
2015-11-04T05:29:13.904Z,1.3
2015-11-04T05:30:13.860Z,1.4
2015-11-04T05:31:13.801Z,1.4
2015-11-04T05:32:13.740Z,1.4
2015-11-04T05:33:13.681Z,1.4
2015-11-04T05:34:13.621Z,1.4
2015-11-04T05:35:13.562Z,1.4
2015-11-04T05:36:13.502Z,1.4
2015-11-04T05:37:13.457Z,1.2
2015-11-04T05:38:13.398Z,1.2
2015-11-04T05:39:13.338Z,1.3
2015-11-04T05:40:13.278Z,1.4
2015-11-04T05:41:13.218Z,1.4
2015-11-04T05:42:13.159Z,1.4
2015-11-04T05:43:13.115Z,1.5
2015-11-04T05:44:13.054Z,1.5
2015-11-04T05:45:12.995Z,1.4
2015-11-04T05:46:12.935Z,1.3
2015-11-04T05:47:12.880Z,1.3
2015-11-04T05:48:12.820Z,1.2
2015-11-04T05:49:12.761Z,1.2
2015-11-04T05:50:12.716Z,1.2
2015-11-04T05:51:12.641Z,1.3
2015-11-04T05:52:12.582Z,1.4
2015-11-04T05:53:12.537Z,1.3
2015-11-04T05:54:12.477Z,1.3
2015-11-04T05:55:12.417Z,1.4
2015-11-04T05:56:12.358Z,1.5
2015-11-04T05:57:12.298Z,1.4
2015-11-04T05:58:12.254Z,1.4
2015-11-04T05:59:12.195Z,1.2
2015-11-04T06:00:12.136Z,1.2
2015-11-04T06:01:12.075Z,1.1
2015-11-04T06:02:12.015Z,1.3
2015-11-04T06:03:11.955Z,1.2
2015-11-04T06:04:11.896Z,1.3
2015-11-04T06:05:11.836Z,1.3
2015-11-04T06:06:11.777Z,1.4
2015-11-04T06:07:11.733Z,1.5
2015-11-04T06:08:11.672Z,1.5
2015-11-04T06:09:11.613Z,1.5
2015-11-04T06:10:11.553Z,1.4
2015-11-04T06:11:11.493Z,1.3
2015-11-04T06:12:11.449Z,1.2
2015-11-04T06:13:11.388Z,1.2
2015-11-04T06:14:11.330Z,1.2
2015-11-04T06:15:11.269Z,1.2
2015-11-04T06:16:11.207Z,1.3
2015-11-04T06:17:11.147Z,1.3
2015-11-04T06:18:11.087Z,1.2
2015-11-04T06:19:11.027Z,1.2
2015-11-04T06:20:10.968Z,1.2
2015-11-04T06:21:10.908Z,1.2
2015-11-04T06:22:10.863Z,1.1
2015-11-04T06:23:10.805Z,1.2
2015-11-04T06:24:10.744Z,1.2
2015-11-04T06:25:10.671Z,1.2
2015-11-04T06:26:10.596Z,1.2
2015-11-04T06:27:10.523Z,1.3
2015-11-04T06:28:10.448Z,1.3
2015-11-04T06:29:10.390Z,1.4
2015-11-04T06:30:10.309Z,1.5
2015-11-04T06:31:10.245Z,1.6
2015-11-04T06:32:10.196Z,1.7
2015-11-04T06:33:10.131Z,1.7
2015-11-04T06:34:10.066Z,1.7
2015-11-04T06:35:10.005Z,1.7
2015-11-04T06:36:09.942Z,1.6
2015-11-04T06:37:09.881Z,1.7
2015-11-04T06:38:09.836Z,1.7
2015-11-04T06:39:09.774Z,1.6
2015-11-04T06:40:09.714Z,1.7
2015-11-04T06:41:09.653Z,1.7
2015-11-04T06:42:09.609Z,1.7
2015-11-04T06:43:09.533Z,1.7
2015-11-04T06:44:09.473Z,1.8
2015-11-04T06:45:09.429Z,1.8
2015-11-04T06:46:09.369Z,1.7
2015-11-04T06:47:09.309Z,1.6
2015-11-04T06:48:09.248Z,1.7
2015-11-04T06:49:09.188Z,1.7
2015-11-04T06:50:09.128Z,1.6
2015-11-04T06:51:09.084Z,1.6
2015-11-04T06:52:09.024Z,1.7
2015-11-04T06:53:08.964Z,1.7
2015-11-04T06:54:08.905Z,1.6
2015-11-04T06:55:08.861Z,1.7
2015-11-04T06:56:08.786Z,1.8
2015-11-04T06:57:08.741Z,1.9
2015-11-04T06:58:08.682Z,1.8
2015-11-04T06:59:08.619Z,1.8
2015-11-04T07:00:08.560Z,1.7
2015-11-04T07:01:08.500Z,1.8
2015-11-04T07:02:08.440Z,1.7
2015-11-04T07:03:08.380Z,1.7
2015-11-04T07:04:08.351Z,1.8
2015-11-04T07:05:08.276Z,1.8
2015-11-04T07:06:08.216Z,1.8
2015-11-04T07:07:08.157Z,1.8
2015-11-04T07:08:08.096Z,1.7
2015-11-04T07:09:08.037Z,1.7
2015-11-04T07:10:07.977Z,1.7
2015-11-04T07:11:07.933Z,1.8
2015-11-04T07:12:07.874Z,1.8
2015-11-04T07:13:07.813Z,1.8
2015-11-04T07:14:07.754Z,1.9
2015-11-04T07:15:07.709Z,1.8
2015-11-04T07:16:07.650Z,1.8
2015-11-04T07:17:07.590Z,1.7
2015-11-04T07:18:07.545Z,1.8
2015-11-04T07:19:07.470Z,1.9
2015-11-04T07:20:07.410Z,2
2015-11-04T07:21:07.351Z,2
2015-11-04T07:22:07.291Z,2.1
2015-11-04T07:23:07.232Z,2
2015-11-04T07:24:07.187Z,1.9
2015-11-04T07:25:07.128Z,1.8
2015-11-04T07:26:07.068Z,1.9
2015-11-04T07:27:07.009Z,2
2015-11-04T07:28:06.948Z,2
2015-11-04T07:29:06.904Z,2
2015-11-04T07:30:06.845Z,1.9
2015-11-04T07:31:06.800Z,1.8
2015-11-04T07:32:06.740Z,1.7
2015-11-04T07:33:06.665Z,1.7
2015-11-04T07:34:06.620Z,1.7
2015-11-04T07:35:06.562Z,1.8
2015-11-04T07:36:06.517Z,1.9
2015-11-04T07:37:06.442Z,2
2015-11-04T07:38:06.381Z,2
2015-11-04T07:39:06.322Z,2
2015-11-04T07:40:06.262Z,2.1
2015-11-04T07:41:06.218Z,2.2
2015-11-04T07:42:06.158Z,2.3
2015-11-04T07:43:06.098Z,2.3
2015-11-04T07:44:06.039Z,2.4
2015-11-04T07:45:05.995Z,2.5
2015-11-04T07:46:05.936Z,2.4
2015-11-04T07:47:05.875Z,2.3
2015-11-04T07:48:05.816Z,2.2
2015-11-04T07:49:05.755Z,2.2
2015-11-04T07:50:05.711Z,2.2
2015-11-04T07:51:05.652Z,2.3
2015-11-04T07:52:05.592Z,2.4
2015-11-04T07:53:05.547Z,2.4
2015-11-04T07:54:05.472Z,2.4
2015-11-04T07:55:05.427Z,2.5
2015-11-04T07:56:05.368Z,2.5
2015-11-04T07:57:05.308Z,2.6
2015-11-04T07:58:05.249Z,2.5
2015-11-04T07:59:05.189Z,2.5
2015-11-04T08:00:05.145Z,2.6
2015-11-04T08:01:05.085Z,2.6
2015-11-04T08:02:05.024Z,2.6
2015-11-04T08:03:04.965Z,2.6
2015-11-04T08:04:04.906Z,2.6
2015-11-04T08:05:04.862Z,2.7
2015-11-04T08:06:04.802Z,2.7
2015-11-04T08:07:04.740Z,2.7
2015-11-04T08:08:04.679Z,2.6
2015-11-04T08:09:04.635Z,2.6
2015-11-04T08:10:04.576Z,2.5
2015-11-04T08:11:04.515Z,2.6
2015-11-04T08:12:04.456Z,2.7
2015-11-04T08:13:04.396Z,2.7
2015-11-04T08:14:04.337Z,2.8
2015-11-04T08:15:04.293Z,2.9
2015-11-04T08:16:04.232Z,3.1
2015-11-04T08:17:04.172Z,3.2
2015-11-04T08:18:04.128Z,3.2
2015-11-04T08:19:04.054Z,3.3
2015-11-04T08:20:04.009Z,3.4
2015-11-04T08:21:03.965Z,3.4
2015-11-04T08:22:03.889Z,3.5
2015-11-04T08:23:03.845Z,3.5
2015-11-04T08:24:03.786Z,3.5
2015-11-04T08:25:03.726Z,3.6
2015-11-04T08:26:03.666Z,3.8
2015-11-04T08:27:03.622Z,4
2015-11-04T08:28:03.562Z,4.2
2015-11-04T08:29:03.503Z,4.3
2015-11-04T08:30:03.443Z,4.4
2015-11-04T08:31:03.398Z,4.3
2015-11-04T08:32:03.339Z,4.3
2015-11-04T08:33:03.279Z,4.4
2015-11-04T08:34:03.219Z,4.5
2015-11-04T08:35:03.175Z,4.6
2015-11-04T08:36:03.115Z,4.7
2015-11-04T08:37:03.056Z,4.8
2015-11-04T08:38:03.011Z,4.9
2015-11-04T08:39:02.952Z,5
2015-11-04T08:40:02.891Z,5.1
2015-11-04T08:41:02.832Z,5.2
2015-11-04T08:42:02.789Z,5.3
2015-11-04T08:43:02.728Z,5.3
2015-11-04T08:44:02.669Z,5.3
2015-11-04T08:45:02.625Z,5.4
2015-11-04T08:46:02.564Z,5.5
2015-11-04T08:47:02.503Z,5.5
2015-11-04T08:48:02.459Z,5.6
2015-11-04T08:49:02.398Z,5.7
2015-11-04T08:50:02.339Z,5.7
2015-11-04T08:51:02.295Z,5.7
2015-11-04T08:52:02.235Z,5.8
2015-11-04T08:53:02.175Z,5.7
2015-11-04T08:54:02.116Z,5.7
2015-11-04T08:55:02.071Z,5.8
2015-11-04T08:56:02.011Z,5.8
2015-11-04T08:57:01.968Z,5.8
2015-11-04T08:58:01.908Z,5.8
2015-11-04T08:59:01.848Z,5.8
2015-11-04T09:00:01.788Z,5.9
2015-11-04T09:01:01.744Z,5.9
2015-11-04T09:02:01.684Z,5.8
2015-11-04T09:03:01.622Z,5.8
2015-11-04T09:04:01.577Z,5.7
2015-11-04T09:05:01.519Z,5.8
2015-11-04T09:06:01.474Z,5.8
2015-11-04T09:07:01.414Z,5.8
2015-11-04T09:08:01.355Z,5.7
2015-11-04T09:09:01.311Z,5.8
2015-11-04T09:10:01.250Z,5.8
2015-11-04T09:11:01.206Z,6
2015-11-04T09:12:01.147Z,6.1
2015-11-04T09:13:01.103Z,6.1
2015-11-04T09:14:01.027Z,5.9
2015-11-04T09:15:00.983Z,6.1
2015-11-04T09:16:00.924Z,6.2
2015-11-04T09:17:00.881Z,6.2
2015-11-04T09:18:00.821Z,6.2
2015-11-04T09:19:00.761Z,6.3
2015-11-04T09:20:00.702Z,6.5
2015-11-04T09:21:00.657Z,6.5
2015-11-04T09:22:00.598Z,6.6
2015-11-04T09:23:00.538Z,6.7
2015-11-04T09:24:00.510Z,6.8
2015-11-04T09:25:00.435Z,6.8
2015-11-04T09:26:00.374Z,6.8
2015-11-04T09:27:00.315Z,6.8
2015-11-04T09:28:00.270Z,6.8
2015-11-04T09:29:00.212Z,6.9
2015-11-04T09:30:00.151Z,7
2015-11-04T09:31:00.106Z,7
2015-11-04T09:32:00.047Z,7
2015-11-04T09:32:59.987Z,7.2
2015-11-04T09:33:59.943Z,7.3
2015-11-04T09:34:59.884Z,7.5
2015-11-04T09:35:59.839Z,7.5
2015-11-04T09:36:59.779Z,7.6
2015-11-04T09:37:59.720Z,7.6
2015-11-04T09:38:59.676Z,7.7
2015-11-04T09:39:59.617Z,7.8
2015-11-04T09:40:59.556Z,7.9
2015-11-04T09:41:59.512Z,7.9
2015-11-04T09:42:59.453Z,7.9
2015-11-04T09:43:59.409Z,8
2015-11-04T09:44:59.348Z,8.1
2015-11-04T09:45:59.304Z,8
2015-11-04T09:46:59.245Z,8.1
2015-11-04T09:47:59.184Z,8
2015-11-04T09:48:59.141Z,7.9
2015-11-04T09:49:59.081Z,8
2015-11-04T09:50:59.037Z,8.1
2015-11-04T09:51:58.977Z,8.1
2015-11-04T09:52:58.917Z,8.1
2015-11-04T09:53:58.873Z,7.9
2015-11-04T09:54:58.813Z,7.8
2015-11-04T09:55:58.750Z,7.8
2015-11-04T09:56:58.706Z,7.8
2015-11-04T09:57:58.663Z,7.8
2015-11-04T09:58:58.602Z,7.8
2015-11-04T09:59:58.574Z,7.9
2015-11-04T10:00:58.483Z,7.8
2015-11-04T10:01:58.439Z,7.6
2015-11-04T10:02:58.379Z,7.6
2015-11-04T10:03:58.335Z,7.6
2015-11-04T10:04:58.275Z,7.7
2015-11-04T10:05:58.231Z,7.8
2015-11-04T10:06:58.172Z,7.8
2015-11-04T10:07:58.111Z,7.8
2015-11-04T10:08:58.068Z,7.8
2015-11-04T10:09:58.007Z,7.7
2015-11-04T10:10:57.964Z,7.7
2015-11-04T10:11:57.905Z,7.7
2015-11-04T10:12:57.844Z,7.7
2015-11-04T10:13:57.799Z,7.7
2015-11-04T10:14:57.740Z,7.8
2015-11-04T10:15:57.696Z,7.8
2015-11-04T10:16:57.636Z,7.9
2015-11-04T10:17:57.593Z,8
2015-11-04T10:18:57.532Z,8.1
2015-11-04T10:19:57.474Z,8.3
2015-11-04T10:20:57.429Z,8.3
2015-11-04T10:21:57.369Z,8.4
2015-11-04T10:22:57.324Z,8.5
2015-11-04T10:23:57.265Z,8.6
2015-11-04T10:24:57.220Z,8.7
2015-11-04T10:25:57.161Z,8.7
2015-11-04T10:26:57.101Z,8.7
2015-11-04T10:27:57.057Z,8.7
2015-11-04T10:28:56.998Z,8.8
2015-11-04T10:29:56.954Z,8.8
2015-11-04T10:30:56.893Z,8.8
2015-11-04T10:31:56.865Z,8.9
2015-11-04T10:32:56.790Z,8.9
2015-11-04T10:33:56.729Z,8.9
2015-11-04T10:34:56.685Z,9.1
2015-11-04T10:35:56.626Z,9.1
2015-11-04T10:36:56.581Z,9.2
2015-11-04T10:37:56.522Z,9.2
2015-11-04T10:38:56.463Z,9.3
2015-11-04T10:39:56.418Z,9.3
2015-11-04T10:40:56.359Z,9.5
2015-11-04T10:41:56.315Z,9.6
2015-11-04T10:42:56.254Z,9.6
2015-11-04T10:43:56.226Z,9.7
2015-11-04T10:44:56.151Z,9.8
2015-11-04T10:45:56.106Z,9.8
2015-11-04T10:46:56.047Z,9.8
2015-11-04T10:47:56.002Z,10
2015-11-04T10:48:55.939Z,10.1
2015-11-04T10:49:55.895Z,10.2
2015-11-04T10:50:55.837Z,10.3
2015-11-04T10:51:55.792Z,10.4
2015-11-04T10:52:55.731Z,10.4
2015-11-04T10:53:55.672Z,10.4
2015-11-04T10:54:55.628Z,10.4
2015-11-04T10:55:55.584Z,10.4
2015-11-04T10:56:55.525Z,10.5
2015-11-04T10:57:55.464Z,10.5
2015-11-04T10:58:55.436Z,10.5
2015-11-04T10:59:55.360Z,10.5
2015-11-04T11:00:55.317Z,10.5
2015-11-04T11:01:55.272Z,10.5
2015-11-04T11:02:55.213Z,10.5
2015-11-04T11:03:55.152Z,10.6
2015-11-04T11:04:55.108Z,10.7
2015-11-04T11:05:55.049Z,10.7
2015-11-04T11:06:55.005Z,10.7
2015-11-04T11:07:54.960Z,10.8
2015-11-04T11:08:54.900Z,10.8
2015-11-04T11:09:54.857Z,10.8
2015-11-04T11:10:54.797Z,10.9
2015-11-04T11:11:54.737Z,10.9
2015-11-04T11:12:54.694Z,10.9
2015-11-04T11:13:54.649Z,11
2015-11-04T11:14:54.589Z,11
2015-11-04T11:15:54.545Z,11
2015-11-04T11:16:54.485Z,11.1
2015-11-04T11:17:54.441Z,11.2
2015-11-04T11:18:54.381Z,11.2
2015-11-04T11:19:54.337Z,11.2
2015-11-04T11:20:54.277Z,11.2
2015-11-04T11:21:54.233Z,11.3
2015-11-04T11:22:54.189Z,11.3
2015-11-04T11:23:54.129Z,11.4
2015-11-04T11:24:54.085Z,11.4
2015-11-04T11:25:54.026Z,11.4
2015-11-04T11:26:53.982Z,11.4
2015-11-04T11:27:53.921Z,11.5
2015-11-04T11:28:53.877Z,11.6
2015-11-04T11:29:53.818Z,11.7
2015-11-04T11:30:53.773Z,11.7
2015-11-04T11:31:53.729Z,11.7
2015-11-04T11:32:53.670Z,11.8
2015-11-04T11:33:53.626Z,11.9
2015-11-04T11:34:53.566Z,11.9
2015-11-04T11:35:53.522Z,11.9
2015-11-04T11:36:53.462Z,12
2015-11-04T11:37:53.418Z,12
2015-11-04T11:38:53.357Z,12.1
2015-11-04T11:39:53.329Z,12.1
2015-11-04T11:41:53.226Z,12.2
2015-11-04T11:42:53.163Z,12.2
2015-11-04T11:43:53.103Z,12.3
2015-11-04T11:44:53.060Z,12.4
2015-11-04T11:45:53.015Z,12.5
2015-11-04T11:46:52.956Z,12.4
2015-11-04T11:47:52.911Z,12.4
2015-11-04T11:48:52.851Z,12.5
2015-11-04T11:49:52.806Z,12.6
2015-11-04T11:50:52.762Z,12.6
2015-11-04T11:51:52.703Z,12.6
2015-11-04T11:52:52.659Z,12.7
2015-11-04T11:53:52.615Z,12.7
2015-11-04T11:54:52.555Z,12.8
2015-11-04T11:55:52.511Z,12.8
2015-11-04T11:56:52.466Z,13.1
2015-11-04T11:57:52.407Z,13.1
2015-11-04T11:58:52.347Z,13.1
2015-11-04T11:59:52.303Z,13.1
2015-11-04T12:00:52.259Z,13
2015-11-04T12:01:52.199Z,13
2015-11-04T12:02:52.155Z,13
2015-11-04T12:03:52.095Z,13.1
2015-11-04T12:04:52.051Z,13.2
2015-11-04T12:05:52.007Z,13.5
2015-11-04T12:06:51.947Z,13.6
2015-11-04T12:07:51.903Z,13.7
2015-11-04T12:08:51.843Z,13.9
2015-11-04T12:09:51.800Z,14
2015-11-04T12:10:51.739Z,14.2
2015-11-04T12:11:51.695Z,14.3
2015-11-04T12:12:51.652Z,14.4
2015-11-04T12:13:51.592Z,14.9
2015-11-04T12:14:51.548Z,15
2015-11-04T12:15:51.503Z,15.1
2015-11-04T12:16:51.444Z,15.4
2015-11-04T12:17:51.400Z,15.9
2015-11-04T12:18:51.339Z,16.5
2015-11-04T12:19:51.296Z,17
2015-11-04T12:20:51.267Z,17.7
2015-11-04T12:21:51.207Z,18.4
2015-11-04T12:22:51.164Z,18.8
2015-11-04T12:23:51.103Z,18.9
2015-11-04T12:24:51.060Z,18.9
2015-11-04T12:25:51.015Z,19.7
2015-11-04T12:26:50.972Z,20.4
2015-11-04T12:27:50.927Z,21
2015-11-04T12:28:50.882Z,21.3
2015-11-04T12:29:50.838Z,21.2
2015-11-04T12:30:50.794Z,21.4
2015-11-04T12:31:50.750Z,21.8
2015-11-04T12:32:50.707Z,22.3
2015-11-04T12:33:50.662Z,22.5
2015-11-04T12:34:50.618Z,22.5
2015-11-04T12:35:50.574Z,22
2015-11-04T12:36:50.530Z,21.3
2015-11-04T12:37:50.470Z,21.2
2015-11-04T12:38:50.441Z,20.7
2015-11-04T12:39:50.381Z,20.6
2015-11-04T12:40:50.334Z,20.3
2015-11-04T12:41:50.290Z,20
2015-11-04T12:42:50.246Z,20
2015-11-04T12:43:50.201Z,19.7
2015-11-04T12:44:50.157Z,19.9
2015-11-04T12:45:50.114Z,20.3
2015-11-04T12:46:50.070Z,20.4
2015-11-04T12:47:50.025Z,20.4
2015-11-04T12:48:49.981Z,19.8
2015-11-04T12:49:49.921Z,19
2015-11-04T12:50:49.878Z,18.7
2015-11-04T12:51:49.834Z,18.7
2015-11-04T12:52:49.789Z,19.1
2015-11-04T12:53:49.745Z,19.2
2015-11-04T12:54:49.701Z,19.5
2015-11-04T12:55:49.673Z,20
2015-11-04T12:56:49.612Z,20.8
2015-11-04T12:57:49.569Z,21.1
2015-11-04T12:58:49.520Z,20.7
2015-11-04T12:59:49.475Z,20.6
2015-11-04T13:00:49.431Z,21.5
2015-11-04T13:01:49.387Z,22
2015-11-04T13:02:49.343Z,22.3
2015-11-04T13:03:49.298Z,22.7
2015-11-04T13:04:49.239Z,22.8
2015-11-04T13:05:49.211Z,23.3
2015-11-04T13:06:49.166Z,23.5
2015-11-04T13:07:49.123Z,23.6
2015-11-04T13:08:49.062Z,23.8
2015-11-04T13:09:49.034Z,23.6
2015-11-04T13:10:48.990Z,23
2015-11-04T13:11:48.930Z,22.3
2015-11-04T13:12:48.902Z,22
2015-11-04T13:13:48.842Z,22.3
2015-11-04T13:14:48.798Z,22.4
2015-11-04T13:15:48.753Z,22.1
2015-11-04T13:16:48.709Z,21.4
2015-11-04T13:17:48.665Z,20.8
2015-11-04T13:18:48.621Z,20.4
2015-11-04T13:19:48.577Z,19.9
2015-11-04T13:20:48.517Z,19.7
2015-11-04T13:21:48.473Z,20
2015-11-04T13:22:48.428Z,20.6
2015-11-04T13:23:48.386Z,21.3
2015-11-04T13:24:48.342Z,21.6
2015-11-04T13:25:48.296Z,21.5
2015-11-04T13:26:48.253Z,21.6
2015-11-04T13:27:48.209Z,21.8
2015-11-04T13:28:48.149Z,21.6
2015-11-04T13:29:48.105Z,20.9
2015-11-04T13:30:48.060Z,20.5
2015-11-04T13:31:48.016Z,20.4
2015-11-04T13:32:47.972Z,20.4
2015-11-04T13:33:47.925Z,20.2
2015-11-04T13:34:47.880Z,19.7
2015-11-04T13:35:47.821Z,19.6
2015-11-04T13:36:47.793Z,19.3
2015-11-04T13:37:47.733Z,19.2
2015-11-04T13:38:47.688Z,19.2
2015-11-04T13:39:47.644Z,18.8
2015-11-04T13:40:47.600Z,18.7
2015-11-04T13:41:47.540Z,18.7
2015-11-04T13:42:47.497Z,18.4
2015-11-04T13:43:47.468Z,18.1
2015-11-04T13:44:47.407Z,17.6
2015-11-04T13:45:47.364Z,17
2015-11-04T13:46:47.304Z,16.9
2015-11-04T13:47:47.260Z,16.6
2015-11-04T13:48:47.216Z,16.3
2015-11-04T13:49:47.156Z,16.2